CheckWX is a tool to help pilots better visualize weather data.  It is not intended as a substitute for an official pre-flight weather briefing.

12:28:58 UTC

PHOG METAR
Kahului Airport
Kahului, Hawaii, USA
Current

35 mins ago

PHOG 201154Z AUTO 02005KT 10SM CLR 24/19 A2995 RMK AO2 SLP148 60000 T02390194 10267 20217 58015 TSNO
Observed
Nov-20 @ 11:54 UTC
Wind
  • 020° at 5 KTS
Visibility
10 SM
Flight Rules
VFR
Cloud Levels
  • Clear skies
Temperature
24°C / 75°F
Dewpoint
19°C / 66°F
Humidity
74%
Altimeter
29.95" Hg
Pressure
1014.22 hPa
Previous

2 hours ago

PHOG 201054Z AUTO 14003KT 10SM CLR 22/18 A2997 RMK AO2 SLP155 T02220183 TSNO
Observed
Nov-20 @ 10:54 UTC
Wind
  • 140° at 3 KTS
Visibility
10 SM
Flight Rules
VFR
Cloud Levels
  • Clear skies
Temperature
22°C / 72°F
Dewpoint
18°C / 64°F
Humidity
78%
Altimeter
29.97" Hg
Pressure
1014.92 hPa
Previous

3 hours ago

PHOG 200954Z AUTO 06010KT 10SM FEW025 SCT050 25/21 A2998 RMK AO2 SLP157 T02500206 403330194 TSNO
Observed
Nov-20 @ 09:54 UTC
Wind
  • 060° at 10 KTS
Visibility
10 SM
Flight Rules
VFR
Cloud Levels
  • Few at 2,500' AGL
  • Scattered at 5,000' AGL
Temperature
25°C / 77°F
Dewpoint
21°C / 70°F
Humidity
79%
Altimeter
29.98" Hg
Pressure
1015.22 hPa